Time;durP1;ratioP1;P1;durP2;ratioP2;P2;SDS_P1;SDS_P2;PMS_P1;PMS_P2;Temp;Humidity;BMP_temperature;BMP_pressure;BME280_temperature;BME280_humidity;BME280_pressure;Samples;Min_cycle;Max_cycle;Signal;HPM_P1;HPM_P2
2021/12/26 00:01:45;;;;;;;1.23;0.70;;;-1.00;99.90;;;;;;2217810;64;20109;-31
2021/12/26 00:04:17;;;;;;;1.90;1.20;;;-0.90;99.90;;;;;;2216057;64;20103;-41
2021/12/26 00:06:49;;;;;;;1.70;0.90;;;-0.90;99.90;;;;;;2216130;64;20198;-35
2021/12/26 00:09:21;;;;;;;3.50;0.90;;;-0.90;99.90;;;;;;2216015;64;20476;-37
2021/12/26 00:11:53;;;;;;;2.23;1.07;;;-0.90;99.90;;;;;;2215978;64;20569;-36
2021/12/26 00:14:25;;;;;;;1.70;0.90;;;-0.90;99.90;;;;;;2216124;64;20089;-39
2021/12/26 00:16:56;;;;;;;1.57;0.90;;;-0.90;99.90;;;;;;2216135;64;20145;-37
2021/12/26 00:19:28;;;;;;;2.30;0.70;;;-0.90;99.90;;;;;;2215977;64;20101;-42
2021/12/26 00:22:00;;;;;;;4.37;1.47;;;-0.90;99.90;;;;;;2216231;64;20101;-43
2021/12/26 00:24:32;;;;;;;1.90;1.10;;;-0.90;99.90;;;;;;2216226;64;20092;-43
2021/12/26 00:27:04;;;;;;;1.80;0.83;;;-0.90;99.90;;;;;;2215939;64;20588;-47
2021/12/26 00:29:36;;;;;;;2.20;0.90;;;-1.00;99.90;;;;;;2216158;64;20085;-38
2021/12/26 00:32:08;;;;;;;2.70;1.50;;;-1.00;99.90;;;;;;2216059;64;20100;-37
2021/12/26 00:34:40;;;;;;;3.53;1.90;;;-1.00;99.90;;;;;;2216056;64;20104;-36
2021/12/26 00:37:11;;;;;;;4.07;1.90;;;-1.00;99.90;;;;;;2216045;64;20085;-37
2021/12/26 00:39:43;;;;;;;3.43;1.60;;;-1.00;99.90;;;;;;2212946;64;20085;-34
2021/12/26 00:42:15;;;;;;;3.07;1.40;;;-1.00;99.90;;;;;;2216201;64;20093;-34
2021/12/26 00:44:47;;;;;;;3.47;1.77;;;-1.10;99.90;;;;;;2216170;64;20103;-34
2021/12/26 00:47:18;;;;;;;3.67;1.63;;;-1.10;99.90;;;;;;2216192;64;20460;-33
2021/12/26 00:49:50;;;;;;;4.50;1.37;;;-1.20;99.90;;;;;;2216113;64;20089;-32
2021/12/26 00:52:22;;;;;;;4.93;1.93;;;-1.30;99.90;;;;;;2219348;64;20515;-32
2021/12/26 00:54:54;;;;;;;4.37;1.80;;;-1.40;99.90;;;;;;2223173;64;20533;-34
2021/12/26 00:57:26;;;;;;;5.13;1.33;;;-1.50;99.90;;;;;;2223093;64;20453;-34
2021/12/26 00:59:58;;;;;;;4.27;2.10;;;-1.50;99.90;;;;;;2222938;64;20085;-34
2021/12/26 01:02:29;;;;;;;2.77;1.20;;;-1.60;99.90;;;;;;2220016;64;20088;-34
2021/12/26 01:05:02;;;;;;;3.70;1.20;;;-1.80;99.90;;;;;;2220021;64;20557;-34
2021/12/26 01:07:46;;;;;;;4.73;1.53;;;-1.80;99.90;;;;;;2220070;64;20168;-34
2021/12/26 01:10:20;;;;;;;4.63;1.60;;;-1.90;99.90;;;;;;2220106;64;20445;-35
2021/12/26 01:12:53;;;;;;;2.90;1.43;;;-2.00;99.90;;;;;;2219905;64;20080;-33
2021/12/26 01:15:25;;;;;;;3.87;1.30;;;-2.00;99.90;;;;;;2219910;64;20080;-34
2021/12/26 01:17:58;;;;;;;4.57;0.77;;;-2.10;99.90;;;;;;2223624;64;20096;-32
2021/12/26 01:23:12;;;;;;;3.63;1.07;;;-2.20;99.90;;;;;;2220455;64;20111;-35
2021/12/26 01:25:44;;;;;;;2.73;1.13;;;-2.20;99.90;;;;;;2223668;64;20092;-34
2021/12/26 01:28:18;;;;;;;2.27;0.77;;;-2.20;99.90;;;;;;2220520;64;20645;-33
2021/12/26 01:30:50;;;;;;;4.97;2.07;;;-2.10;99.90;;;;;;2220523;64;20084;-32
2021/12/26 01:33:22;;;;;;;2.50;1.53;;;-2.00;99.90;;;;;;2220573;64;20108;-34
2021/12/26 01:35:54;;;;;;;3.10;1.40;;;-2.00;99.90;;;;;;2220480;64;20111;-32
2021/12/26 01:38:26;;;;;;;2.77;0.77;;;-2.00;99.90;;;;;;2220344;64;20627;-33
2021/12/26 01:40:58;;;;;;;2.07;1.20;;;-2.10;99.90;;;;;;2219679;64;20170;-33
2021/12/26 01:43:30;;;;;;;11.23;3.30;;;-2.10;99.90;;;;;;2219759;64;20163;-33
2021/12/26 01:46:02;;;;;;;10.13;3.43;;;-2.30;99.90;;;;;;2216481;64;20557;-32
2021/12/26 01:48:34;;;;;;;2.00;1.37;;;-2.60;99.90;;;;;;2216727;64;20089;-33
2021/12/26 01:51:06;;;;;;;5.53;2.23;;;-2.70;99.90;;;;;;2216391;64;20124;-32
2021/12/26 01:53:39;;;;;;;8.00;3.57;;;-2.80;99.90;;;;;;2216608;64;20104;-34
2021/12/26 01:56:12;;;;;;;11.43;4.30;;;-2.90;99.90;;;;;;2216538;64;20077;-33
2021/12/26 01:58:44;;;;;;;17.13;5.97;;;-3.00;99.90;;;;;;2212611;64;20124;-34
2021/12/26 02:01:16;;;;;;;16.93;5.63;;;-3.10;99.90;;;;;;2216686;64;20105;-34
2021/12/26 02:03:48;;;;;;;17.03;5.67;;;-3.20;99.90;;;;;;2216492;64;20557;-34
2021/12/26 02:06:21;;;;;;;5.77;2.57;;;-3.20;99.90;;;;;;2216711;64;20085;-33
2021/12/26 02:08:52;;;;;;;13.17;5.47;;;-3.30;99.90;;;;;;2216693;64;20096;-33
2021/12/26 02:11:24;;;;;;;16.23;6.60;;;-3.30;99.90;;;;;;2216566;64;20093;-32
2021/12/26 02:13:56;;;;;;;16.43;6.23;;;-3.40;99.90;;;;;;2216514;64;20104;-33
2021/12/26 02:16:28;;;;;;;15.60;6.80;;;-3.30;99.90;;;;;;2216441;64;20097;-33
2021/12/26 02:19:00;;;;;;;15.80;7.17;;;-3.50;99.90;;;;;;2213236;64;20174;-33
2021/12/26 02:21:59;;;;;;;16.73;7.27;;;-3.50;99.90;;;;;;2219696;64;20097;-31
2021/12/26 02:27:31;;;;;;;11.70;4.33;;;-3.60;99.90;;;;;;2216542;64;20104;-32
2021/12/26 02:30:23;;;;;;;11.57;5.87;;;-3.70;99.90;;;;;;2219750;64;20081;-32
2021/12/26 02:32:59;;;;;;;15.93;5.83;;;-3.80;99.90;;;;;;2216536;64;20108;-32
2021/12/26 02:35:31;;;;;;;9.43;4.17;;;-4.00;99.90;;;;;;2216471;64;20108;-31
2021/12/26 02:38:02;;;;;;;16.53;6.07;;;-4.10;99.90;;;;;;2216554;64;20108;-32
2021/12/26 02:40:34;;;;;;;13.70;5.33;;;-4.20;99.90;;;;;;2217540;64;20107;-33
2021/12/26 02:43:06;;;;;;;10.37;3.87;;;-4.30;99.90;;;;;;2213416;64;20112;-32
2021/12/26 02:45:38;;;;;;;11.00;4.97;;;-4.50;99.90;;;;;;2216566;64;20085;-36
2021/12/26 02:48:10;;;;;;;9.37;3.90;;;-4.60;99.90;;;;;;2216638;64;20152;-32
2021/12/26 02:50:42;;;;;;;8.83;4.03;;;-4.70;99.90;;;;;;2216484;64;20089;-33
2021/12/26 02:53:20;;;;;;;7.43;3.07;;;-4.80;99.90;;;;;;2216318;64;20599;-33
2021/12/26 02:55:53;;;;;;;8.73;3.20;;;-4.90;99.90;;;;;;2216471;64;20081;-31
2021/12/26 02:58:25;;;;;;;4.37;1.73;;;-4.90;99.90;;;;;;2216708;64;20104;-33
2021/12/26 03:01:00;;;;;;;12.83;5.10;;;-5.00;99.90;;;;;;2216574;64;20089;-32
2021/12/26 03:03:32;;;;;;;;;;;-5.00;99.90;;;;;;2216609;64;20172;-32
2021/12/26 03:06:09;;;;;;;9.97;3.47;;;-5.00;99.90;;;;;;2216288;64;20134;-32
2021/12/26 03:08:41;;;;;;;9.20;3.77;;;-5.10;99.90;;;;;;2216304;64;20108;-32
2021/12/26 03:11:14;;;;;;;13.33;6.00;;;-5.20;99.90;;;;;;2216224;64;20077;-33
2021/12/26 03:13:45;;;;;;;13.17;6.17;;;-5.10;99.90;;;;;;2216252;64;20166;-32
2021/12/26 03:16:17;;;;;;;12.07;4.93;;;-5.20;99.90;;;;;;2216211;64;20096;-32
2021/12/26 03:18:49;;;;;;;10.57;5.07;;;-5.30;99.90;;;;;;2216202;64;20571;-32
2021/12/26 03:21:21;;;;;;;9.73;4.30;;;-5.30;99.90;;;;;;2216270;64;20655;-31
2021/12/26 03:23:53;;;;;;;7.90;3.77;;;-5.40;99.90;;;;;;2216302;64;20115;-32
2021/12/26 03:26:24;;;;;;;9.73;4.53;;;-5.40;99.90;;;;;;2213117;64;20085;-34
2021/12/26 03:28:56;;;;;;;8.67;3.37;;;-5.40;99.90;;;;;;2216192;64;20105;-33
2021/12/26 03:31:28;;;;;;;11.77;4.67;;;-5.60;99.90;;;;;;2216458;64;20112;-32
2021/12/26 03:34:02;;;;;;;12.97;4.63;;;-5.50;99.90;;;;;;2216360;64;20089;-31
2021/12/26 03:36:34;;;;;;;12.10;4.47;;;-5.50;99.90;;;;;;2216272;64;20134;-32
2021/12/26 03:39:06;;;;;;;10.03;3.63;;;-5.50;99.90;;;;;;2208253;64;20097;-32
2021/12/26 03:41:38;;;;;;;9.57;3.37;;;-5.50;99.90;;;;;;2215312;64;20093;-31
2021/12/26 03:44:10;;;;;;;13.27;4.27;;;-5.50;99.90;;;;;;2212908;64;20084;-32
2021/12/26 03:46:42;;;;;;;8.33;3.70;;;-5.60;99.90;;;;;;2219108;64;20568;-34
2021/12/26 03:49:13;;;;;;;8.20;4.33;;;-5.80;99.90;;;;;;2216027;64;20112;-33
2021/12/26 03:51:45;;;;;;;6.37;2.90;;;-5.90;99.90;;;;;;2219012;64;20100;-31
2021/12/26 03:54:17;;;;;;;8.03;3.60;;;-6.10;99.90;;;;;;2219034;64;20100;-33
2021/12/26 03:56:49;;;;;;;6.73;2.90;;;-6.10;99.90;;;;;;2219162;64;20174;-34
2021/12/26 03:59:21;;;;;;;7.63;3.27;;;-6.30;99.90;;;;;;2219273;64;20370;-32
2021/12/26 04:01:54;;;;;;;8.43;3.27;;;-6.40;99.90;;;;;;2219148;64;20080;-31
2021/12/26 04:04:26;;;;;;;6.07;2.60;;;-6.40;99.90;;;;;;2212887;64;20326;-30
2021/12/26 04:06:58;;;;;;;9.93;2.50;;;-6.40;99.90;;;;;;2216054;64;20073;-31
2021/12/26 04:09:30;;;;;;;9.57;3.37;;;-6.30;99.90;;;;;;2219189;64;20089;-31
2021/12/26 04:12:02;;;;;;;6.37;2.50;;;-6.30;99.90;;;;;;2218993;64;20153;-32
2021/12/26 04:14:39;;;;;;;7.13;2.70;;;-6.40;99.90;;;;;;2218862;64;20564;-33
2021/12/26 04:17:11;;;;;;;5.33;2.67;;;-6.50;99.90;;;;;;2219774;64;20084;-33
2021/12/26 04:19:43;;;;;;;6.00;2.50;;;-6.50;99.90;;;;;;2216902;64;20093;-34
2021/12/26 04:22:15;;;;;;;10.53;3.67;;;-6.50;99.90;;;;;;2220003;64;20093;-31
2021/12/26 04:24:46;;;;;;;5.13;2.33;;;-6.50;99.90;;;;;;2219955;64;20108;-36
2021/12/26 04:27:18;;;;;;;5.20;2.40;;;-6.50;99.90;;;;;;2220007;64;20095;-34
2021/12/26 04:29:54;;;;;;;8.73;3.23;;;-6.50;99.90;;;;;;2220108;64;20084;-33
2021/12/26 04:32:25;;;;;;;9.40;2.55;;;-6.40;99.90;;;;;;2219951;64;20105;-32
2021/12/26 04:35:01;;;;;;;7.47;3.57;;;-6.30;99.90;;;;;;2215821;64;20108;-34
2021/12/26 04:37:34;;;;;;;8.52;3.63;;;-6.40;99.90;;;;;;2216011;64;20647;-33
2021/12/26 04:40:15;;;;;;;6.47;3.10;;;-6.40;99.90;;;;;;2215812;64;20205;-31
2021/12/26 04:42:50;;;;;;;8.37;3.17;;;-6.50;99.90;;;;;;2215824;64;20107;-31
2021/12/26 04:45:23;;;;;;;6.45;2.95;;;-6.60;99.90;;;;;;2215722;64;20239;-32
2021/12/26 04:47:55;;;;;;;12.33;4.83;;;-6.70;99.90;;;;;;2215928;64;20092;-33
2021/12/26 04:50:28;;;;;;;8.30;3.73;;;-6.80;99.90;;;;;;2215709;64;20092;-33
2021/12/26 04:53:01;;;;;;;7.82;3.28;;;-6.80;99.90;;;;;;2215833;64;20096;-36
2021/12/26 04:55:34;;;;;;;8.97;4.10;;;-6.80;99.90;;;;;;2211059;64;20114;-36
2021/12/26 04:58:06;;;;;;;8.60;2.97;;;-6.80;99.90;;;;;;2211165;64;20577;-32
2021/12/26 05:00:38;;;;;;;9.50;3.57;;;-6.80;99.90;;;;;;2211060;64;20577;-33
2021/12/26 05:03:10;;;;;;;7.57;2.33;;;-6.80;99.90;;;;;;2211228;64;20156;-33
2021/12/26 05:05:44;;;;;;;4.70;2.07;;;-6.90;99.90;;;;;;2211034;64;20222;-32
2021/12/26 05:08:16;;;;;;;6.50;3.07;;;-6.80;99.90;;;;;;2211243;64;20588;-33
2021/12/26 05:10:47;;;;;;;8.33;3.83;;;-6.80;99.90;;;;;;2211184;64;20101;-34
2021/12/26 05:13:23;;;;;;;6.23;3.70;;;-6.90;99.90;;;;;;2207572;64;20086;-33
2021/12/26 05:16:00;;;;;;;7.23;3.03;;;-7.00;99.90;;;;;;2207351;64;20145;-34
2021/12/26 05:18:33;;;;;;;10.53;3.63;;;-7.00;99.90;;;;;;2207478;64;20100;-31
2021/12/26 05:21:06;;;;;;;9.63;4.20;;;-7.00;99.90;;;;;;2207195;64;20102;-36
2021/12/26 05:23:38;;;;;;;5.37;1.87;;;-7.00;99.90;;;;;;2207252;64;20121;-37
2021/12/26 05:26:11;;;;;;;5.10;2.17;;;-7.00;99.90;;;;;;2207189;64;20473;-33
2021/12/26 05:28:44;;;;;;;7.63;3.13;;;-7.00;99.90;;;;;;2199442;65;20087;-33
2021/12/26 05:31:16;;;;;;;5.03;3.07;;;-6.90;99.90;;;;;;2199567;65;20103;-32
2021/12/26 05:33:48;;;;;;;6.80;2.60;;;-6.90;99.90;;;;;;2200278;65;20168;-33
2021/12/26 05:36:22;;;;;;;6.43;2.30;;;-6.90;99.90;;;;;;2200359;65;20074;-33
2021/12/26 05:38:58;;;;;;;6.53;3.13;;;-6.90;99.90;;;;;;2200416;65;20082;-36
2021/12/26 05:41:33;;;;;;;5.43;2.87;;;-6.90;99.90;;;;;;2200661;64;20102;-33
2021/12/26 05:44:05;;;;;;;7.83;2.63;;;-6.90;99.90;;;;;;2204221;64;20157;-35
2021/12/26 05:46:37;;;;;;;9.93;2.90;;;-6.80;99.90;;;;;;2204258;64;20161;-35
2021/12/26 05:49:09;;;;;;;9.97;3.60;;;-6.80;99.90;;;;;;2204148;64;20175;-36
2021/12/26 05:51:42;;;;;;;10.67;3.40;;;-6.80;99.90;;;;;;2206250;64;20101;-36
2021/12/26 05:54:15;;;;;;;8.90;3.50;;;-6.80;99.90;;;;;;2207911;64;20108;-34
2021/12/26 05:56:48;;;;;;;7.37;2.80;;;-6.80;99.90;;;;;;2204734;64;20132;-37
2021/12/26 05:59:20;;;;;;;3.73;1.97;;;-6.80;99.90;;;;;;2204797;64;20093;-35
2021/12/26 06:01:52;;;;;;;9.43;3.27;;;-6.80;99.90;;;;;;2208101;64;20186;-34
2021/12/26 06:04:24;;;;;;;7.43;2.83;;;-6.90;99.90;;;;;;2208598;64;20244;-33
2021/12/26 06:06:56;;;;;;;10.93;4.50;;;-6.90;99.90;;;;;;2217351;64;20548;-33
2021/12/26 06:09:29;;;;;;;7.60;2.90;;;-7.00;99.90;;;;;;2220445;64;20100;-33
2021/12/26 06:12:03;;;;;;;9.20;3.47;;;-7.00;99.90;;;;;;2220275;64;20173;-34
2021/12/26 06:14:36;;;;;;;5.03;2.40;;;-7.00;99.90;;;;;;2217522;64;20626;-32
2021/12/26 06:17:08;;;;;;;13.10;3.40;;;-7.00;99.90;;;;;;2220269;64;20604;-33
2021/12/26 06:19:40;;;;;;;8.23;2.80;;;-7.00;99.90;;;;;;2217385;64;20104;-32
2021/12/26 06:22:16;;;;;;;11.25;3.17;;;-6.90;99.90;;;;;;2220365;64;20160;-35
2021/12/26 06:24:48;;;;;;;6.83;2.30;;;-6.90;99.90;;;;;;2220146;64;20128;-31
2021/12/26 06:27:20;;;;;;;9.63;2.70;;;-6.90;99.90;;;;;;2220365;64;20507;-32
2021/12/26 06:29:51;;;;;;;7.20;2.60;;;-6.90;99.90;;;;;;2220349;64;20537;-35
2021/12/26 06:32:25;;;;;;;6.63;2.73;;;-6.80;99.90;;;;;;2220406;64;20178;-32
2021/12/26 06:35:09;;;;;;;4.17;2.33;;;-6.90;99.90;;;;;;2217626;64;20196;-33
2021/12/26 06:37:44;;;;;;;6.93;2.07;;;-6.90;99.90;;;;;;2220271;64;20081;-30
2021/12/26 06:40:19;;;;;;;;;;;-6.90;99.90;;;;;;2220389;64;20101;-33
2021/12/26 06:42:52;;;;;;;4.57;2.15;;;-6.90;99.90;;;;;;2220066;64;19968;-31
2021/12/26 06:45:24;;;;;;;5.10;1.77;;;-6.80;99.90;;;;;;2220162;64;20092;-31
2021/12/26 06:48:01;;;;;;;5.47;2.07;;;-6.80;99.90;;;;;;2220185;64;20162;-31
2021/12/26 06:50:33;;;;;;;6.63;2.63;;;-6.80;99.90;;;;;;2220077;64;20557;-32
2021/12/26 06:53:05;;;;;;;8.30;2.40;;;-6.70;99.90;;;;;;2219916;64;20089;-34
2021/12/26 06:55:37;;;;;;;6.47;2.37;;;-6.70;99.90;;;;;;2220094;64;20100;-33
2021/12/26 06:58:09;;;;;;;9.40;2.80;;;-6.60;99.90;;;;;;2220327;64;20190;-32
2021/12/26 07:00:42;;;;;;;13.87;3.07;;;-6.50;99.90;;;;;;2220190;64;20161;-40
2021/12/26 07:03:14;;;;;;;5.03;2.07;;;-6.40;99.90;;;;;;2220092;64;20073;-31
2021/12/26 07:05:46;;;;;;;6.07;2.20;;;-6.40;99.90;;;;;;2217072;64;20148;-31
2021/12/26 07:08:18;;;;;;;9.87;2.77;;;-6.30;99.90;;;;;;2220007;64;20100;-33
2021/12/26 07:10:50;;;;;;;4.40;2.07;;;-6.30;99.90;;;;;;2216804;64;20190;-32
2021/12/26 07:13:22;;;;;;;6.97;2.90;;;-6.20;99.90;;;;;;2219897;64;20096;-33
2021/12/26 07:15:54;;;;;;;9.93;4.27;;;-6.20;99.90;;;;;;2220023;64;20645;-31
2021/12/26 07:18:26;;;;;;;6.93;2.73;;;-6.20;99.90;;;;;;2219943;64;20453;-33
2021/12/26 07:20:59;;;;;;;8.60;3.10;;;-6.10;99.90;;;;;;2220076;64;20077;-34
2021/12/26 07:23:31;;;;;;;4.43;2.10;;;-6.20;99.90;;;;;;2219991;64;20103;-32
2021/12/26 07:26:03;;;;;;;7.03;3.07;;;-6.30;99.90;;;;;;2220111;64;20081;-31
2021/12/26 07:28:35;;;;;;;6.60;2.17;;;-6.50;99.90;;;;;;2219913;64;20135;-32
2021/12/26 07:31:08;;;;;;;3.70;1.57;;;-6.60;99.90;;;;;;2219984;64;20100;-32
2021/12/26 07:33:40;;;;;;;5.73;2.03;;;-6.70;99.90;;;;;;2219949;64;20091;-32
2021/12/26 07:36:39;;;;;;;;;;;-6.80;99.90;;;;;;2220045;64;20096;-33
2021/12/26 07:39:12;;;;;;;4.30;1.53;;;-7.00;99.90;;;;;;2219806;64;19968;-32
2021/12/26 07:41:44;;;;;;;6.50;1.97;;;-7.10;99.90;;;;;;2219771;64;20625;-33
2021/12/26 07:44:17;;;;;;;5.40;2.00;;;-7.30;99.90;;;;;;2219884;64;20088;-32
2021/12/26 07:46:52;;;;;;;5.23;1.80;;;-7.30;99.90;;;;;;2219994;64;20112;-32
2021/12/26 07:49:27;;;;;;;7.73;2.60;;;-7.40;99.90;;;;;;2222877;64;20095;-31
2021/12/26 07:51:59;;;;;;;8.15;1.90;;;-7.40;99.90;;;;;;2216836;64;20092;-31
2021/12/26 07:54:31;;;;;;;4.80;2.20;;;-7.30;99.90;;;;;;2223032;64;20156;-31
2021/12/26 07:57:06;;;;;;;7.00;3.00;;;-7.20;99.90;;;;;;2219053;64;20162;-32
2021/12/26 07:59:39;;;;;;;6.13;1.93;;;-7.00;99.90;;;;;;2223029;64;20088;-32
2021/12/26 08:02:14;;;;;;;5.87;2.13;;;-6.90;99.90;;;;;;2222909;64;20140;-30
2021/12/26 08:04:46;;;;;;;3.17;1.00;;;-6.70;99.90;;;;;;2223021;64;20084;-31
2021/12/26 08:07:19;;;;;;;6.33;2.37;;;-6.70;99.90;;;;;;2222985;64;20092;-31
2021/12/26 08:09:51;;;;;;;9.13;1.20;;;-6.60;99.90;;;;;;2222968;64;20119;-32
2021/12/26 08:12:23;;;;;;;2.50;1.00;;;-6.50;99.90;;;;;;2222832;64;20092;-34
2021/12/26 08:14:55;;;;;;;6.27;2.03;;;-6.40;99.90;;;;;;2222850;64;20180;-35
2021/12/26 08:17:28;;;;;;;8.00;3.53;;;-6.20;99.90;;;;;;2219937;64;20111;-37
2021/12/26 08:20:00;;;;;;;3.17;1.43;;;-6.20;99.90;;;;;;2219808;64;20162;-37
2021/12/26 08:22:32;;;;;;;7.00;2.60;;;-6.20;99.90;;;;;;2223071;64;20748;-34
2021/12/26 08:25:04;;;;;;;6.07;2.77;;;-6.20;99.90;;;;;;2222882;64;20099;-35
2021/12/26 08:27:36;;;;;;;3.23;0.70;;;-6.20;99.90;;;;;;2223055;64;20093;-33
2021/12/26 08:30:08;;;;;;;7.43;2.00;;;-6.20;99.90;;;;;;2222909;64;20110;-42
2021/12/26 08:32:42;;;;;;;6.77;2.90;;;-6.30;99.90;;;;;;2219692;64;20576;-36
2021/12/26 08:35:17;;;;;;;6.17;2.47;;;-6.20;99.90;;;;;;2222991;64;20591;-32
2021/12/26 08:37:53;;;;;;;4.47;1.43;;;-6.00;99.90;;;;;;2222841;64;20130;-33
2021/12/26 08:40:25;;;;;;;6.17;2.10;;;-5.90;99.90;;;;;;2222005;64;20092;-34
2021/12/26 08:42:57;;;;;;;7.17;2.27;;;-6.20;99.90;;;;;;2219751;64;20111;-36
2021/12/26 08:45:29;;;;;;;8.00;2.33;;;-6.40;99.90;;;;;;2216741;64;20101;-47
2021/12/26 08:48:01;;;;;;;5.87;2.40;;;-6.30;99.90;;;;;;2219779;64;20099;-39
2021/12/26 08:50:33;;;;;;;6.83;2.73;;;-6.30;99.90;;;;;;2219755;64;20602;-37
2021/12/26 08:53:04;;;;;;;5.83;2.70;;;-6.00;99.90;;;;;;2219657;64;20147;-37
2021/12/26 08:55:37;;;;;;;4.80;1.90;;;-6.10;99.90;;;;;;2216782;64;20096;-36
2021/12/26 08:58:09;;;;;;;4.87;2.10;;;-6.20;99.90;;;;;;2219914;64;20099;-39
2021/12/26 09:00:40;;;;;;;5.93;2.60;;;-6.10;99.90;;;;;;2219638;64;20085;-37
2021/12/26 09:03:13;;;;;;;4.30;2.37;;;-6.00;99.90;;;;;;2219717;64;20100;-36
2021/12/26 09:05:45;;;;;;;2.93;1.90;;;-5.60;99.90;;;;;;2219983;64;20595;-36
2021/12/26 09:08:17;;;;;;;4.40;2.23;;;-5.50;99.90;;;;;;2222807;64;20081;-35
2021/12/26 09:10:49;;;;;;;4.03;1.80;;;-5.40;99.90;;;;;;2219835;64;20170;-34
2021/12/26 09:13:21;;;;;;;5.43;2.57;;;-5.20;99.90;;;;;;2219751;64;20089;-32
2021/12/26 09:15:53;;;;;;;6.47;2.10;;;-5.00;99.90;;;;;;2219896;64;20489;-36
2021/12/26 09:18:27;;;;;;;5.43;1.77;;;-5.30;99.90;;;;;;2222936;64;20100;-36
2021/12/26 09:21:01;;;;;;;8.13;2.60;;;-5.50;99.90;;;;;;2219937;64;20093;-34
2021/12/26 09:23:38;;;;;;;3.73;1.80;;;-5.50;99.90;;;;;;2222816;64;20096;-33
2021/12/26 09:26:10;;;;;;;7.83;3.20;;;-5.40;99.90;;;;;;2219756;64;20088;-55
2021/12/26 09:28:42;;;;;;;5.03;2.00;;;-5.60;99.90;;;;;;2219535;64;20097;-37
2021/12/26 09:31:14;;;;;;;6.53;2.10;;;-6.00;99.90;;;;;;2222686;64;20081;-38
2021/12/26 09:33:46;;;;;;;5.10;2.30;;;-5.70;99.90;;;;;;2219663;64;20101;-38
2021/12/26 09:36:18;;;;;;;5.97;2.33;;;-5.70;99.90;;;;;;2219716;64;20084;-34
2021/12/26 09:38:50;;;;;;;5.70;2.10;;;-5.50;99.90;;;;;;2217171;64;20127;-35
2021/12/26 09:41:22;;;;;;;5.00;1.87;;;-5.60;99.90;;;;;;2219508;64;20084;-35
2021/12/26 09:43:53;;;;;;;5.27;2.63;;;-5.50;99.90;;;;;;2219629;64;20093;-35
2021/12/26 09:46:28;;;;;;;4.47;2.00;;;-5.40;99.90;;;;;;2219517;64;20442;-35
2021/12/26 09:49:00;;;;;;;4.63;1.67;;;-5.30;99.90;;;;;;2219474;64;20089;-37
2021/12/26 09:51:32;;;;;;;4.57;1.80;;;-5.50;99.90;;;;;;2219447;64;20178;-43
2021/12/26 09:54:04;;;;;;;4.73;1.70;;;-5.60;99.90;;;;;;2216434;64;20093;-36
2021/12/26 09:56:36;;;;;;;6.10;1.67;;;-5.40;99.90;;;;;;2219429;64;20096;-40
2021/12/26 09:59:17;;;;;;;5.63;2.50;;;-5.50;99.90;;;;;;2219468;64;20116;-42
2021/12/26 10:01:51;;;;;;;4.10;1.60;;;-5.50;99.90;;;;;;2216578;64;20117;-45
2021/12/26 10:04:28;;;;;;;6.13;1.63;;;-5.60;99.90;;;;;;2216375;64;20191;-47
2021/12/26 10:07:11;;;;;;;4.47;1.97;;;-5.60;99.90;;;;;;2219484;64;20089;-45
2021/12/26 10:09:49;;;;;;;3.70;1.57;;;-5.50;99.90;;;;;;2216515;64;20163;-43
2021/12/26 10:12:24;;;;;;;6.47;2.73;;;-5.70;99.90;;;;;;2216265;64;20108;-43
2021/12/26 10:14:59;;;;;;;4.30;1.50;;;-5.70;99.90;;;;;;2216430;64;20089;-44
2021/12/26 10:17:38;;;;;;;5.27;2.17;;;-5.80;99.90;;;;;;2219269;64;20088;-46
2021/12/26 10:20:12;;;;;;;4.53;1.50;;;-6.00;99.90;;;;;;2216244;64;20492;-46
2021/12/26 10:22:52;;;;;;;2.93;1.57;;;-5.80;99.90;;;;;;2219196;64;20101;-37
2021/12/26 10:25:36;;;;;;;4.33;1.93;;;-5.90;99.90;;;;;;2219251;64;20087;-37
2021/12/26 10:28:11;;;;;;;5.03;1.80;;;-6.10;99.90;;;;;;2216356;64;20101;-39
2021/12/26 10:30:43;;;;;;;6.77;3.40;;;-6.30;99.90;;;;;;2219263;64;20488;-38
2021/12/26 10:33:18;;;;;;;6.47;2.47;;;-5.80;99.90;;;;;;2219429;64;20104;-36
2021/12/26 10:35:54;;;;;;;5.20;1.90;;;-5.80;99.90;;;;;;2216442;64;20081;-36
2021/12/26 10:38:28;;;;;;;5.23;1.70;;;-5.90;99.90;;;;;;2216190;64;20089;-35
2021/12/26 10:41:04;;;;;;;5.30;1.95;;;-6.10;99.90;;;;;;2220064;64;20156;-35
2021/12/26 10:43:45;;;;;;;;;;;-6.20;99.90;;;;;;2217377;64;20620;-33
2021/12/26 10:46:20;;;;;;;8.30;2.57;;;-5.70;99.90;;;;;;2220077;64;19964;-41
2021/12/26 10:48:55;;;;;;;6.53;2.10;;;-5.60;99.90;;;;;;2217148;64;20089;-41
2021/12/26 10:51:33;;;;;;;5.53;2.10;;;-5.50;99.90;;;;;;2220065;64;20080;-42
2021/12/26 10:54:15;;;;;;;4.83;2.17;;;-5.20;99.90;;;;;;2220182;64;20511;-40
2021/12/26 10:57:27;;;;;;;6.50;2.43;;;-5.10;99.90;;;;;;2220223;64;20518;-36
2021/12/26 11:00:12;;;;;;;4.20;1.50;;;-5.20;99.90;;;;;;2223278;64;20104;-45
2021/12/26 11:02:59;;;;;;;7.17;1.13;;;-5.30;99.90;;;;;;2220293;64;20156;-47
2021/12/26 11:05:31;;;;;;;5.50;2.00;;;-5.40;99.90;;;;;;2217213;64;20111;-46
2021/12/26 11:08:08;;;;;;;3.27;1.60;;;-5.40;99.90;;;;;;2220182;64;20089;-47
2021/12/26 11:10:43;;;;;;;3.97;1.80;;;-5.50;99.90;;;;;;2220186;64;20077;-47
2021/12/26 11:13:25;;;;;;;5.53;1.90;;;-5.50;99.90;;;;;;2217169;64;20120;-47
2021/12/26 11:15:59;;;;;;;3.40;1.40;;;-5.60;99.90;;;;;;2220146;64;20152;-45
2021/12/26 11:18:33;;;;;;;4.50;1.50;;;-5.60;99.90;;;;;;2220129;64;20080;-41
2021/12/26 11:21:14;;;;;;;2.53;1.30;;;-5.60;99.90;;;;;;2223194;64;20099;-38
2021/12/26 11:23:48;;;;;;;11.37;3.33;;;-5.70;99.90;;;;;;2220141;64;20548;-43
2021/12/26 11:26:24;;;;;;;3.15;1.63;;;-5.50;99.90;;;;;;2220237;64;20123;-35
2021/12/26 11:28:59;;;;;;;7.87;2.40;;;-5.90;99.90;;;;;;2217186;64;20096;-38
2021/12/26 11:31:32;;;;;;;;;;;-5.90;99.90;;;;;;2217152;64;20096;-40
2021/12/26 11:34:09;;;;;;;8.30;2.30;;;-6.00;99.90;;;;;;2220045;64;19972;-38
2021/12/26 11:36:43;;;;;;;5.50;2.40;;;-6.20;99.90;;;;;;2219948;64;20092;-38
2021/12/26 11:39:16;;;;;;;6.43;2.57;;;-6.20;99.90;;;;;;2216955;64;20092;-42
2021/12/26 11:41:58;;;;;;;6.73;2.10;;;-6.50;99.90;;;;;;2219115;64;20089;-40
2021/12/26 11:45:11;;;;;;;6.53;2.37;;;-6.50;99.90;;;;;;2213052;64;20088;-44
2021/12/26 11:48:28;;;;;;;7.17;2.40;;;-6.40;99.90;;;;;;2216172;64;20085;-45
2021/12/26 11:51:28;;;;;;;5.80;1.90;;;-6.40;99.90;;;;;;2213868;64;20450;-41
2021/12/26 11:54:12;;;;;;;4.30;1.87;;;-6.60;99.90;;;;;;2219321;64;20081;-36
2021/12/26 11:57:05;;;;;;;3.50;1.67;;;-6.80;99.90;;;;;;2219292;64;20116;-38
2021/12/26 12:00:16;;;;;;;8.47;2.00;;;-7.00;99.90;;;;;;2219358;64;20107;-36
2021/12/26 12:02:52;;;;;;;3.20;1.50;;;-7.00;99.90;;;;;;2215959;64;20559;-46
2021/12/26 12:05:41;;;;;;;4.40;2.30;;;-7.00;99.90;;;;;;2219142;64;20178;-38
2021/12/26 12:08:17;;;;;;;7.73;3.03;;;-7.10;99.90;;;;;;2219081;64;20089;-37
2021/12/26 12:10:57;;;;;;;6.70;1.87;;;-7.40;99.90;;;;;;2219235;64;20182;-49
2021/12/26 12:13:40;;;;;;;4.27;1.60;;;-7.60;99.90;;;;;;2215822;64;20527;-42
2021/12/26 12:16:26;;;;;;;5.00;2.27;;;-7.60;99.90;;;;;;2219031;64;20105;-45
2021/12/26 12:19:09;;;;;;;5.27;2.67;;;-7.60;99.90;;;;;;2214866;64;20085;-40
2021/12/26 12:24:40;;;;;;;7.07;2.60;;;-7.90;99.90;;;;;;2209427;64;20085;-43
2021/12/26 12:28:11;;;;;;;5.90;2.90;;;-8.10;99.90;;;;;;2215105;64;20089;-41
2021/12/26 12:31:12;;;;;;;;;;;-8.30;99.90;;;;;;2199769;65;20559;-44
2021/12/26 12:37:33;;;;;;;7.47;2.73;;;-9.00;99.90;;;;;;2199671;65;20133;-43
2021/12/26 12:40:25;;;;;;;6.60;2.63;;;-9.30;99.90;;;;;;2199508;65;20100;-43
2021/12/26 12:43:13;;;;;;;7.07;3.30;;;-9.00;99.90;;;;;;2199598;65;20114;-42
2021/12/26 12:45:55;;;;;;;11.90;5.20;;;-9.00;99.90;;;;;;2199746;65;20075;-41
2021/12/26 12:48:27;;;;;;;5.23;2.90;;;-9.10;99.90;;;;;;2199393;65;20095;-44
2021/12/26 12:50:59;;;;;;;7.23;2.57;;;-9.20;99.90;;;;;;2199665;65;20191;-43
2021/12/26 12:53:50;;;;;;;8.93;2.77;;;-9.20;99.90;;;;;;2199427;65;20606;-43
2021/12/26 12:56:44;;;;;;;5.23;2.57;;;-9.20;99.90;;;;;;2199663;65;20134;-42
2021/12/26 12:59:18;;;;;;;5.50;2.50;;;-9.40;99.90;;;;;;2199539;65;20622;-40
2021/12/26 13:01:51;;;;;;;10.23;2.78;;;-9.60;99.90;;;;;;2204354;64;20584;-42
2021/12/26 13:04:53;;;;;;;5.83;2.40;;;-9.50;99.90;;;;;;2207261;64;20086;-44
2021/12/26 13:07:26;;;;;;;20.10;7.37;;;-9.50;99.90;;;;;;2195708;65;20163;-41
2021/12/26 13:09:59;;;;;;;18.83;9.10;;;-10.20;99.90;;;;;;2200873;65;20082;-42
2021/12/26 13:12:29;;;;;;;11.33;5.60;;;-10.40;99.90;;;;;;2203392;65;20193;-41
2021/12/26 13:15:00;;;;;;;11.43;4.67;;;-10.50;99.90;;;;;;2200770;65;20101;-42
2021/12/26 13:17:40;;;;;;;13.30;6.00;;;-10.40;99.90;;;;;;2204122;65;20106;-43
2021/12/26 13:20:20;;;;;;;9.90;4.13;;;-10.30;99.90;;;;;;2204300;64;20172;-43
2021/12/26 13:22:53;;;;;;;7.63;3.00;;;-10.20;99.90;;;;;;2211920;64;20462;-43
2021/12/26 13:25:41;;;;;;;10.87;5.07;;;-10.70;99.90;;;;;;2205254;64;20109;-43
2021/12/26 13:28:11;;;;;;;13.13;5.03;;;-11.00;99.90;;;;;;2211617;64;20101;-44
2021/12/26 13:30:45;;;;;;;5.87;2.10;;;-11.10;99.90;;;;;;2211567;64;20581;-45
2021/12/26 13:33:21;;;;;;;9.75;3.85;;;-11.20;99.90;;;;;;2211830;64;20152;-44
2021/12/26 13:35:51;;;;;;;6.07;3.28;;;-11.10;99.90;;;;;;2211719;64;20170;-40
2021/12/26 13:38:21;;;;;;;7.27;3.23;;;-11.30;99.90;;;;;;2211735;64;20179;-41